Flight Track Log - Related Links

Times and Time Zones

All times are in EDT time to prevent confusion due to time zone crossing. See the N500CD flight status page for this flight to view local times or setup timezone preferences in your user account.

Time Position Orientation Groundspeed Altitude Reporting Facility
EDT Latitude Longitude Course Direction KTS MPH feet Rate Location/Type
Thu 02:16:00 PM 30.3267 -85.7132 114° Southeast  Level Estimated
Thu 02:17:00 PM 30.2951 -85.6308 114° Southeast  Level Estimated
Thu 02:18:00 PM 30.2634 -85.5484 114° Southeast  Level Estimated
Thu 02:19:00 PM 30.2317 -85.4661 114° Southeast  Level Estimated
Thu 02:20:00 PM 30.1999 -85.3839 114° Southeast  Level Estimated
Thu 02:21:00 PM 30.1681 -85.3017 114° Southeast  Level Estimated
Thu 02:22:00 PM 30.1362 -85.2196 114° Southeast  Level Estimated
Thu 02:23:00 PM 30.1275 -85.1299 96° East  Level FlightAware Approximate
Thu 02:24:00 PM 30.1188 -85.0402 96° East  Level FlightAware Approximate
Thu 02:25:00 PM 30.1100 -84.9505 96° East  Level FlightAware Approximate
Thu 02:26:00 PM 30.0763 -84.8690 109° East  Level Estimated
Thu 02:27:00 PM 30.0637 -84.7800 99° East  Level FlightAware Approximate
Thu 02:27:14 PM 30.1889 -85.0961 106° East 235 270 20,900  Level Jacksonville Center
Thu 02:28:00 PM 30.0296 -84.6989 106° East  Level Estimated
Thu 02:28:14 PM 30.1692 -85.0286 109° East 242 278 22,000  Level Jacksonville Center
Thu 02:29:00 PM 29.9953 -84.6179 120° Southeast  Level Estimated
Thu 02:29:14 PM 30.1494 -84.9583 108° East 242 278 23,000  Level Jacksonville Center
Thu 02:30:00 PM 29.9610 -84.5369 107° East  Level Estimated
Thu 02:30:14 PM 30.1281 -84.8739 106° East 247 284 23,600  Level Jacksonville Center
Thu 02:31:14 PM 30.1042 -84.7942 109° East 258 297 24,800 1,200 Climbing Jacksonville Center
Thu 02:32:14 PM 30.0822 -84.7144 108° East 258 297 26,000 1,100 Climbing Jacksonville Center
Thu 02:33:14 PM 30.0606 -84.6350 107° East 263 303 27,000 500 Climbing Jacksonville Center
Thu 02:34:14 PM 30.0344 -84.5481 109° East 271 312 27,000  Level Jacksonville Center
Thu 02:35:14 PM 30.0086 -84.4542 108° East 288 331 27,000  Level Jacksonville Center
Thu 02:36:14 PM 29.9764 -84.3528 110° East 309 356 27,000  Level Jacksonville Center
Thu 02:37:14 PM 29.9503 -84.2517 107° East 320 368 27,000  Level Jacksonville Center
Thu 02:38:14 PM 29.9200 -84.1458 108° East 328 377 27,000  Level Jacksonville Center
Thu 02:39:14 PM 29.8897 -84.0425 109° East 333 383 27,000  Level Jacksonville Center
Thu 02:40:14 PM 29.8592 -83.9392 109° East 333 383 27,000 -200 Level Jacksonville Center
Thu 02:41:14 PM 29.8289 -83.8333 108° East 338 389 26,600 -900 Descending Jacksonville Center
Thu 02:42:14 PM 29.7942 -83.7231 110° East 351 404 25,200 -1,300 Descending Jacksonville Center
Thu 02:43:14 PM 29.7592 -83.6056 109° East 370 426 24,000 -600 Descending Jacksonville Center
Thu 02:44:14 PM 29.7286 -83.4953 108° East 370 426 24,000  Level Jacksonville Center
Thu 02:45:14 PM 29.6978 -83.3922 109° East 357 411 24,000  Level Jacksonville Center
Thu 02:46:14 PM 29.6667 -83.2894 109° East 346 398 24,000  Level Jacksonville Center
Thu 02:47:14 PM 29.6397 -83.1864 107° East 346 398 24,000  Level Jacksonville Center
Thu 02:48:14 PM 29.6086 -83.0861 110° East 341 392 24,000  Level Jacksonville Center
Thu 02:49:14 PM 29.5650 -82.9881 117° Southeast 341 392 24,000 -350 Level Jacksonville Center
Thu 02:50:14 PM 29.5211 -82.8950 118° Southeast 331 381 23,300 -1,250 Descending Jacksonville Center
Thu 02:51:14 PM 29.4628 -82.7853 121° Southeast 352 405 21,500 -1,750 Descending Jacksonville Center
Thu 02:52:14 PM 29.4083 -82.6828 121° Southeast 364 419 19,800 -1,700 Descending Jacksonville Center
Thu 02:53:14 PM 29.3600 -82.5853 120° Southeast 369 425 18,100 -1,700 Descending Jacksonville Center
Thu 02:55:00 PM 29.2897 -82.4499 122° Southeast  Level FlightAware Approximate
Thu 03:02:00 PM 28.9766 -81.9565 127° Southeast  Level FlightAware Approximate
Thu 03:03:00 PM 28.9331 -81.8830 131° Southeast  Level FlightAware Approximate
Thu 03:04:00 PM 28.8825 -81.8155 127° Southeast  Level FlightAware Approximate
Thu 03:05:00 PM 28.8364 -81.7440 124° Southeast  Level FlightAware Approximate
Thu 03:06:00 PM 28.7906 -81.6725 135° Southeast  Level FlightAware Approximate
Thu 03:07:00 PM 28.7356 -81.6097 135° Southeast  Level FlightAware Approximate
Thu 03:08:00 PM 28.6815 -81.5463 120° Southeast  Level FlightAware Approximate
Thu 03:09:00 PM 28.6393 -81.4726 139° Southeast  Level FlightAware Approximate
Thu 03:10:00 PM 28.5889 -81.4056 139° Southeast  Level FlightAware Approximate
Thu 03:11:00 PM 28.5437 -81.3339 124° Southeast  Level FlightAware Approximate
Thu 03:12:00 PM 28.5455 -81.3329 124° Southeast  Level Estimated
Thu 03:13:00 PM 28.5455 -81.3329 124° Southeast  Level Estimated
Thu 03:14:00 PM 28.5455 -81.3329 124° Southeast  Level Estimated
Thu 03:15:00 PM 28.5455 -81.3329 124° Southeast  Level Estimated
Thu 03:16:00 PM 28.5455 -81.3329 124° Southeast  Level Estimated
Thu 03:17:00 PM 28.5455 -81.3329 124° Southeast  Level Estimated
Thu 03:18:00 PM 28.5455 -81.3329 124° Southeast  Level Estimated
Thu 03:19:00 PM 28.5455 -81.3329 124° Southeast  Level Estimated
Thu 03:20:00 PM 28.5455 -81.3329 124° Southeast  Level Estimated
Thu 03:21:00 PM 28.5455 -81.3329 124° Southeast  Level Estimated
Thu 03:22:00 PM 28.5455 -81.3329 124° Southeast  Level Estimated
Thu 03:23:00 PM 28.5455 -81.3329 124° Southeast  Level Estimated
Thu 03:24:00 PM 28.5455 -81.3329 124° Southeast  Level Estimated
Thu 03:25:00 PM 28.5455 -81.3329 124° Southeast  Level Estimated
Thu 03:26:00 PM 28.5455 -81.3329 124° Southeast  Level Estimated
Thu 03:27:00 PM 28.5455 -81.3329 124° Southeast  Level Estimated
Thu 03:28:00 PM 28.5455 -81.3329 124° Southeast  Level Estimated

Login

Don't have an account? Register now (free) for customized features, flight alerts, and more!